sensor_id;sensor_type;location;lat;lon;timestamp;temperature;humidity
43651;DHT22;29247;50.944;5.382;2022-09-21T00:01:24;12.00;81.20
43651;DHT22;29247;50.944;5.382;2022-09-21T00:03:58;12.00;81.10
43651;DHT22;29247;50.944;5.382;2022-09-21T00:06:26;11.90;80.90
43651;DHT22;29247;50.944;5.382;2022-09-21T00:08:53;11.90;80.80
43651;DHT22;29247;50.944;5.382;2022-09-21T00:11:24;11.90;80.80
43651;DHT22;29247;50.944;5.382;2022-09-21T00:13:53;11.90;80.60
43651;DHT22;29247;50.944;5.382;2022-09-21T00:16:20;11.80;80.50
43651;DHT22;29247;50.944;5.382;2022-09-21T00:18:49;11.80;80.60
43651;DHT22;29247;50.944;5.382;2022-09-21T00:21:15;11.80;81.20
43651;DHT22;29247;50.944;5.382;2022-09-21T00:23:42;11.80;81.50
43651;DHT22;29247;50.944;5.382;2022-09-21T00:26:19;11.80;81.40
43651;DHT22;29247;50.944;5.382;2022-09-21T00:28:54;11.80;80.90
43651;DHT22;29247;50.944;5.382;2022-09-21T00:31:23;11.80;80.30
43651;DHT22;29247;50.944;5.382;2022-09-21T00:33:53;11.70;80.10
43651;DHT22;29247;50.944;5.382;2022-09-21T00:36:21;11.60;80.30
43651;DHT22;29247;50.944;5.382;2022-09-21T00:38:52;11.60;80.50
43651;DHT22;29247;50.944;5.382;2022-09-21T00:41:19;11.60;80.80
43651;DHT22;29247;50.944;5.382;2022-09-21T00:43:47;11.60;80.90
43651;DHT22;29247;50.944;5.382;2022-09-21T00:46:41;11.60;81.60
43651;DHT22;29247;50.944;5.382;2022-09-21T00:49:09;11.50;80.70
43651;DHT22;29247;50.944;5.382;2022-09-21T00:51:38;11.60;80.70
43651;DHT22;29247;50.944;5.382;2022-09-21T00:54:07;11.50;80.80
43651;DHT22;29247;50.944;5.382;2022-09-21T00:56:42;11.50;80.70
43651;DHT22;29247;50.944;5.382;2022-09-21T00:59:09;11.50;80.80
43651;DHT22;29247;50.944;5.382;2022-09-21T01:01:38;11.40;80.70
43651;DHT22;29247;50.944;5.382;2022-09-21T01:04:04;11.40;80.70
43651;DHT22;29247;50.944;5.382;2022-09-21T01:06:32;11.40;80.80
43651;DHT22;29247;50.944;5.382;2022-09-21T01:09:01;11.40;80.90
43651;DHT22;29247;50.944;5.382;2022-09-21T01:11:45;11.40;80.70
43651;DHT22;29247;50.944;5.382;2022-09-21T01:14:37;11.30;80.70
43651;DHT22;29247;50.944;5.382;2022-09-21T01:23:20;11.30;80.60
43651;DHT22;29247;50.944;5.382;2022-09-21T01:25:29;11.30;80.70
43651;DHT22;29247;50.944;5.382;2022-09-21T01:30:50;11.20;80.70
43651;DHT22;29247;50.944;5.382;2022-09-21T01:33:48;11.20;80.70
43651;DHT22;29247;50.944;5.382;2022-09-21T01:36:21;11.10;81.50
43651;DHT22;29247;50.944;5.382;2022-09-21T01:39:00;11.10;80.50
43651;DHT22;29247;50.944;5.382;2022-09-21T01:41:28;11.00;80.50
43651;DHT22;29247;50.944;5.382;2022-09-21T01:44:01;11.10;80.50
43651;DHT22;29247;50.944;5.382;2022-09-21T01:46:33;11.00;80.50
43651;DHT22;29247;50.944;5.382;2022-09-21T01:49:08;11.00;80.50
43651;DHT22;29247;50.944;5.382;2022-09-21T01:51:39;11.00;80.50
43651;DHT22;29247;50.944;5.382;2022-09-21T01:54:14;10.90;80.50
43651;DHT22;29247;50.944;5.382;2022-09-21T01:56:54;10.90;80.50
43651;DHT22;29247;50.944;5.382;2022-09-21T02:02:14;10.90;80.60
43651;DHT22;29247;50.944;5.382;2022-09-21T02:04:42;10.80;80.30
43651;DHT22;29247;50.944;5.382;2022-09-21T02:07:08;10.80;80.30
43651;DHT22;29247;50.944;5.382;2022-09-21T02:09:37;10.80;80.30
43651;DHT22;29247;50.944;5.382;2022-09-21T02:12:06;10.80;80.30
43651;DHT22;29247;50.944;5.382;2022-09-21T02:14:34;10.80;80.50
43651;DHT22;29247;50.944;5.382;2022-09-21T02:25:08;10.70;80.20
43651;DHT22;29247;50.944;5.382;2022-09-21T02:27:49;10.60;80.20
43651;DHT22;29247;50.944;5.382;2022-09-21T02:30:16;10.60;80.50
43651;DHT22;29247;50.944;5.382;2022-09-21T02:38:22;10.50;80.80
43651;DHT22;29247;50.944;5.382;2022-09-21T02:46:18;10.50;80.90
43651;DHT22;29247;50.944;5.382;2022-09-21T02:49:02;10.50;81.00
43651;DHT22;29247;50.944;5.382;2022-09-21T02:51:38;10.50;81.40
43651;DHT22;29247;50.944;5.382;2022-09-21T02:54:10;10.50;81.70
43651;DHT22;29247;50.944;5.382;2022-09-21T02:56:42;10.50;81.90
43651;DHT22;29247;50.944;5.382;2022-09-21T02:59:11;10.50;82.00
43651;DHT22;29247;50.944;5.382;2022-09-21T03:01:39;10.50;81.90
43651;DHT22;29247;50.944;5.382;2022-09-21T03:04:10;10.50;81.50
43651;DHT22;29247;50.944;5.382;2022-09-21T03:06:35;10.50;81.30
43651;DHT22;29247;50.944;5.382;2022-09-21T03:09:03;10.50;81.20
43651;DHT22;29247;50.944;5.382;2022-09-21T03:11:29;10.40;81.50
43651;DHT22;29247;50.944;5.382;2022-09-21T03:13:57;10.40;81.80
43651;DHT22;29247;50.944;5.382;2022-09-21T03:16:23;10.50;82.20
43651;DHT22;29247;50.944;5.382;2022-09-21T03:18:52;10.40;82.30
43651;DHT22;29247;50.944;5.382;2022-09-21T03:21:19;10.40;82.40
43651;DHT22;29247;50.944;5.382;2022-09-21T03:23:48;10.40;82.50
43651;DHT22;29247;50.944;5.382;2022-09-21T03:26:14;10.50;82.70
43651;DHT22;29247;50.944;5.382;2022-09-21T03:28:39;10.50;82.90
43651;DHT22;29247;50.944;5.382;2022-09-21T03:31:07;10.50;82.90
43651;DHT22;29247;50.944;5.382;2022-09-21T03:33:35;10.50;82.70
43651;DHT22;29247;50.944;5.382;2022-09-21T03:36:01;10.50;82.30
43651;DHT22;29247;50.944;5.382;2022-09-21T03:38:27;10.50;82.20
43651;DHT22;29247;50.944;5.382;2022-09-21T03:40:55;10.50;82.30
43651;DHT22;29247;50.944;5.382;2022-09-21T03:43:25;10.50;82.40
43651;DHT22;29247;50.944;5.382;2022-09-21T03:45:51;10.40;82.40
43651;DHT22;29247;50.944;5.382;2022-09-21T03:48:20;10.40;82.50
43651;DHT22;29247;50.944;5.382;2022-09-21T03:50:49;10.40;82.60
43651;DHT22;29247;50.944;5.382;2022-09-21T03:53:15;10.40;82.70
43651;DHT22;29247;50.944;5.382;2022-09-21T03:55:41;10.40;82.70
43651;DHT22;29247;50.944;5.382;2022-09-21T03:58:07;10.40;82.80
43651;DHT22;29247;50.944;5.382;2022-09-21T04:00:35;10.40;82.80
43651;DHT22;29247;50.944;5.382;2022-09-21T04:03:02;10.40;82.80
43651;DHT22;29247;50.944;5.382;2022-09-21T04:05:28;10.40;83.10
43651;DHT22;29247;50.944;5.382;2022-09-21T04:07:54;10.40;83.10
43651;DHT22;29247;50.944;5.382;2022-09-21T04:10:21;10.40;83.30
43651;DHT22;29247;50.944;5.382;2022-09-21T04:13:00;10.30;83.20
43651;DHT22;29247;50.944;5.382;2022-09-21T04:15:27;10.40;83.30
43651;DHT22;29247;50.944;5.382;2022-09-21T04:17:53;10.40;83.40
43651;DHT22;29247;50.944;5.382;2022-09-21T04:20:22;10.40;83.40
43651;DHT22;29247;50.944;5.382;2022-09-21T04:22:48;10.40;83.50
43651;DHT22;29247;50.944;5.382;2022-09-21T04:25:15;10.40;83.50
43651;DHT22;29247;50.944;5.382;2022-09-21T04:27:41;10.40;83.70
43651;DHT22;29247;50.944;5.382;2022-09-21T04:30:11;10.30;83.70
43651;DHT22;29247;50.944;5.382;2022-09-21T04:32:38;10.30;83.70
43651;DHT22;29247;50.944;5.382;2022-09-21T04:35:06;10.40;83.80
43651;DHT22;29247;50.944;5.382;2022-09-21T04:37:34;10.30;83.80
43651;DHT22;29247;50.944;5.382;2022-09-21T04:40:00;10.40;84.00
43651;DHT22;29247;50.944;5.382;2022-09-21T04:42:25;10.40;84.00
43651;DHT22;29247;50.944;5.382;2022-09-21T04:44:55;10.40;84.00
43651;DHT22;29247;50.944;5.382;2022-09-21T04:47:21;10.40;83.90
43651;DHT22;29247;50.944;5.382;2022-09-21T04:49:49;10.40;84.00
43651;DHT22;29247;50.944;5.382;2022-09-21T04:52:20;10.40;84.20
43651;DHT22;29247;50.944;5.382;2022-09-21T04:54:46;10.40;84.20
43651;DHT22;29247;50.944;5.382;2022-09-21T04:57:13;10.40;84.20
43651;DHT22;29247;50.944;5.382;2022-09-21T04:59:38;10.40;84.10
43651;DHT22;29247;50.944;5.382;2022-09-21T05:02:04;10.40;84.30
43651;DHT22;29247;50.944;5.382;2022-09-21T05:04:30;10.50;84.60
43651;DHT22;29247;50.944;5.382;2022-09-21T05:06:58;10.50;84.30
43651;DHT22;29247;50.944;5.382;2022-09-21T05:09:26;10.50;84.00
43651;DHT22;29247;50.944;5.382;2022-09-21T05:12:13;10.50;83.90
43651;DHT22;29247;50.944;5.382;2022-09-21T05:14:44;10.40;83.70
43651;DHT22;29247;50.944;5.382;2022-09-21T05:17:12;10.40;83.60
43651;DHT22;29247;50.944;5.382;2022-09-21T05:19:39;10.40;83.80
43651;DHT22;29247;50.944;5.382;2022-09-21T05:22:06;10.40;84.00
43651;DHT22;29247;50.944;5.382;2022-09-21T05:24:33;10.40;84.00
43651;DHT22;29247;50.944;5.382;2022-09-21T05:26:59;10.40;84.20
43651;DHT22;29247;50.944;5.382;2022-09-21T05:29:28;10.40;84.60
43651;DHT22;29247;50.944;5.382;2022-09-21T05:32:05;10.50;84.90
43651;DHT22;29247;50.944;5.382;2022-09-21T05:40:00;10.50;85.10
43651;DHT22;29247;50.944;5.382;2022-09-21T05:42:26;10.60;85.00
43651;DHT22;29247;50.944;5.382;2022-09-21T05:44:52;10.60;85.00
43651;DHT22;29247;50.944;5.382;2022-09-21T05:47:46;10.60;85.00
43651;DHT22;29247;50.944;5.382;2022-09-21T05:50:33;10.60;85.10
43651;DHT22;29247;50.944;5.382;2022-09-21T05:55:59;10.70;84.90
43651;DHT22;29247;50.944;5.382;2022-09-21T05:58:45;10.70;84.80
43651;DHT22;29247;50.944;5.382;2022-09-21T06:01:23;10.70;84.90
43651;DHT22;29247;50.944;5.382;2022-09-21T06:03:55;10.70;84.80
43651;DHT22;29247;50.944;5.382;2022-09-21T06:06:24;10.70;84.90
43651;DHT22;29247;50.944;5.382;2022-09-21T06:08:49;10.70;85.00
43651;DHT22;29247;50.944;5.382;2022-09-21T06:11:15;10.80;84.90
43651;DHT22;29247;50.944;5.382;2022-09-21T06:13:41;10.80;84.60
43651;DHT22;29247;50.944;5.382;2022-09-21T06:16:10;10.80;84.80
43651;DHT22;29247;50.944;5.382;2022-09-21T06:18:39;10.80;85.10
43651;DHT22;29247;50.944;5.382;2022-09-21T06:21:07;10.80;85.30
43651;DHT22;29247;50.944;5.382;2022-09-21T06:23:36;10.90;85.10
43651;DHT22;29247;50.944;5.382;2022-09-21T06:26:01;10.90;85.20
43651;DHT22;29247;50.944;5.382;2022-09-21T06:28:32;11.00;85.30
43651;DHT22;29247;50.944;5.382;2022-09-21T06:30:57;11.00;85.30
43651;DHT22;29247;50.944;5.382;2022-09-21T06:33:26;11.00;85.40
43651;DHT22;29247;50.944;5.382;2022-09-21T06:35:53;11.00;85.40
43651;DHT22;29247;50.944;5.382;2022-09-21T06:38:24;11.10;85.50
43651;DHT22;29247;50.944;5.382;2022-09-21T06:40:51;11.10;85.40
43651;DHT22;29247;50.944;5.382;2022-09-21T06:43:20;11.10;85.30
43651;DHT22;29247;50.944;5.382;2022-09-21T06:45:53;11.20;85.50
43651;DHT22;29247;50.944;5.382;2022-09-21T06:48:19;11.20;85.40
43651;DHT22;29247;50.944;5.382;2022-09-21T06:50:46;11.20;85.50
43651;DHT22;29247;50.944;5.382;2022-09-21T06:53:16;11.30;85.60
43651;DHT22;29247;50.944;5.382;2022-09-21T06:55:42;11.30;85.60
43651;DHT22;29247;50.944;5.382;2022-09-21T06:58:08;11.30;85.60
43651;DHT22;29247;50.944;5.382;2022-09-21T07:00:36;11.30;85.70
43651;DHT22;29247;50.944;5.382;2022-09-21T07:03:02;11.40;85.80
43651;DHT22;29247;50.944;5.382;2022-09-21T07:05:27;11.40;85.90
43651;DHT22;29247;50.944;5.382;2022-09-21T07:07:56;11.40;85.80
43651;DHT22;29247;50.944;5.382;2022-09-21T07:10:25;11.40;85.70
43651;DHT22;29247;50.944;5.382;2022-09-21T07:12:53;11.40;85.80
43651;DHT22;29247;50.944;5.382;2022-09-21T07:15:19;11.50;86.10
43651;DHT22;29247;50.944;5.382;2022-09-21T07:17:46;11.50;86.10
43651;DHT22;29247;50.944;5.382;2022-09-21T07:20:14;11.50;86.20
43651;DHT22;29247;50.944;5.382;2022-09-21T07:22:40;11.60;86.50
43651;DHT22;29247;50.944;5.382;2022-09-21T07:25:08;11.60;86.40
43651;DHT22;29247;50.944;5.382;2022-09-21T07:27:34;11.60;86.30
43651;DHT22;29247;50.944;5.382;2022-09-21T07:30:00;11.60;86.00
43651;DHT22;29247;50.944;5.382;2022-09-21T07:32:26;11.60;86.00
43651;DHT22;29247;50.944;5.382;2022-09-21T07:34:57;11.70;86.30
43651;DHT22;29247;50.944;5.382;2022-09-21T07:37:23;11.70;86.50
43651;DHT22;29247;50.944;5.382;2022-09-21T07:39:50;11.70;86.70
43651;DHT22;29247;50.944;5.382;2022-09-21T07:42:16;11.80;86.90
43651;DHT22;29247;50.944;5.382;2022-09-21T07:44:45;11.80;86.90
43651;DHT22;29247;50.944;5.382;2022-09-21T07:47:14;11.90;87.70
43651;DHT22;29247;50.944;5.382;2022-09-21T07:49:42;11.90;87.10
43651;DHT22;29247;50.944;5.382;2022-09-21T07:52:11;12.00;87.10
43651;DHT22;29247;50.944;5.382;2022-09-21T07:54:37;12.00;86.90
43651;DHT22;29247;50.944;5.382;2022-09-21T07:57:02;12.00;86.70
43651;DHT22;29247;50.944;5.382;2022-09-21T07:59:49;12.00;86.70
43651;DHT22;29247;50.944;5.382;2022-09-21T08:02:14;12.10;86.60
43651;DHT22;29247;50.944;5.382;2022-09-21T08:04:42;12.10;86.30
43651;DHT22;29247;50.944;5.382;2022-09-21T08:07:08;12.00;86.20
43651;DHT22;29247;50.944;5.382;2022-09-21T08:09:34;12.00;86.50
43651;DHT22;29247;50.944;5.382;2022-09-21T08:12:00;12.10;86.60
43651;DHT22;29247;50.944;5.382;2022-09-21T08:14:26;12.10;86.40
43651;DHT22;29247;50.944;5.382;2022-09-21T08:16:52;12.10;86.40
43651;DHT22;29247;50.944;5.382;2022-09-21T08:19:17;12.10;86.50
43651;DHT22;29247;50.944;5.382;2022-09-21T08:21:43;12.20;86.60
43651;DHT22;29247;50.944;5.382;2022-09-21T08:24:12;12.20;86.80
43651;DHT22;29247;50.944;5.382;2022-09-21T08:26:40;12.30;86.80
43651;DHT22;29247;50.944;5.382;2022-09-21T08:29:06;12.30;86.80
43651;DHT22;29247;50.944;5.382;2022-09-21T08:31:34;12.30;86.80
43651;DHT22;29247;50.944;5.382;2022-09-21T08:34:00;12.40;86.80
43651;DHT22;29247;50.944;5.382;2022-09-21T08:36:26;12.40;86.80
43651;DHT22;29247;50.944;5.382;2022-09-21T08:38:51;12.40;86.80
43651;DHT22;29247;50.944;5.382;2022-09-21T08:44:25;12.50;87.10
43651;DHT22;29247;50.944;5.382;2022-09-21T08:52:49;12.70;87.50
43651;DHT22;29247;50.944;5.382;2022-09-21T08:55:18;12.80;87.60
43651;DHT22;29247;50.944;5.382;2022-09-21T08:57:47;12.80;87.70
43651;DHT22;29247;50.944;5.382;2022-09-21T09:00:15;12.90;88.00
43651;DHT22;29247;50.944;5.382;2022-09-21T09:02:53;13.00;88.30
43651;DHT22;29247;50.944;5.382;2022-09-21T09:08:08;13.20;88.00
43651;DHT22;29247;50.944;5.382;2022-09-21T09:10:38;13.30;88.00
43651;DHT22;29247;50.944;5.382;2022-09-21T09:16:23;13.40;88.20
43651;DHT22;29247;50.944;5.382;2022-09-21T09:19:44;13.50;88.20
43651;DHT22;29247;50.944;5.382;2022-09-21T09:22:16;13.60;88.10
43651;DHT22;29247;50.944;5.382;2022-09-21T09:27:42;13.80;87.40
43651;DHT22;29247;50.944;5.382;2022-09-21T09:30:24;13.80;86.90
43651;DHT22;29247;50.944;5.382;2022-09-21T09:35:44;13.90;86.10
43651;DHT22;29247;50.944;5.382;2022-09-21T09:38:31;14.00;85.70
43651;DHT22;29247;50.944;5.382;2022-09-21T09:52:45;14.30;84.30
43651;DHT22;29247;50.944;5.382;2022-09-21T09:55:28;14.30;83.90
43651;DHT22;29247;50.944;5.382;2022-09-21T09:57:58;14.40;83.20
43651;DHT22;29247;50.944;5.382;2022-09-21T10:00:24;14.40;82.60
43651;DHT22;29247;50.944;5.382;2022-09-21T10:02:52;14.50;82.30
43651;DHT22;29247;50.944;5.382;2022-09-21T10:05:31;14.50;82.10
43651;DHT22;29247;50.944;5.382;2022-09-21T10:07:57;14.60;81.80
43651;DHT22;29247;50.944;5.382;2022-09-21T10:10:30;14.70;81.80
43651;DHT22;29247;50.944;5.382;2022-09-21T10:15:59;14.80;81.00
43651;DHT22;29247;50.944;5.382;2022-09-21T10:21:15;14.90;80.30
43651;DHT22;29247;50.944;5.382;2022-09-21T10:23:52;15.00;80.10
43651;DHT22;29247;50.944;5.382;2022-09-21T10:26:23;15.00;79.80
43651;DHT22;29247;50.944;5.382;2022-09-21T10:29:02;15.10;79.70
43651;DHT22;29247;50.944;5.382;2022-09-21T10:34:22;15.20;79.70
43651;DHT22;29247;50.944;5.382;2022-09-21T10:36:50;15.30;79.50
43651;DHT22;29247;50.944;5.382;2022-09-21T10:39:30;15.40;79.40
43651;DHT22;29247;50.944;5.382;2022-09-21T10:42:10;15.50;78.90
43651;DHT22;29247;50.944;5.382;2022-09-21T10:44:47;15.50;78.60
43651;DHT22;29247;50.944;5.382;2022-09-21T10:49:52;15.80;78.30
43651;DHT22;29247;50.944;5.382;2022-09-21T10:52:24;15.90;77.80
43651;DHT22;29247;50.944;5.382;2022-09-21T10:54:55;15.90;76.20
43651;DHT22;29247;50.944;5.382;2022-09-21T10:57:25;16.00;75.30
43651;DHT22;29247;50.944;5.382;2022-09-21T10:59:55;16.00;75.00
43651;DHT22;29247;50.944;5.382;2022-09-21T11:02:34;16.00;74.30
43651;DHT22;29247;50.944;5.382;2022-09-21T11:05:37;16.10;74.20
43651;DHT22;29247;50.944;5.382;2022-09-21T11:08:18;16.10;73.40
43651;DHT22;29247;50.944;5.382;2022-09-21T11:13:51;16.20;73.80
43651;DHT22;29247;50.944;5.382;2022-09-21T11:16:39;16.30;74.10
43651;DHT22;29247;50.944;5.382;2022-09-21T11:22:10;16.30;73.40
43651;DHT22;29247;50.944;5.382;2022-09-21T11:24:52;16.30;73.20
43651;DHT22;29247;50.944;5.382;2022-09-21T11:27:38;16.40;73.10
43651;DHT22;29247;50.944;5.382;2022-09-21T11:30:19;16.40;71.90
43651;DHT22;29247;50.944;5.382;2022-09-21T11:36:16;16.40;70.80
43651;DHT22;29247;50.944;5.382;2022-09-21T11:39:05;16.50;70.50
43651;DHT22;29247;50.944;5.382;2022-09-21T11:44:53;16.50;70.00
43651;DHT22;29247;50.944;5.382;2022-09-21T11:47:44;16.50;70.00
43651;DHT22;29247;50.944;5.382;2022-09-21T11:55:47;16.40;70.30
43651;DHT22;29247;50.944;5.382;2022-09-21T11:58:26;16.30;70.30
43651;DHT22;29247;50.944;5.382;2022-09-21T12:10:21;16.30;70.60
43651;DHT22;29247;50.944;5.382;2022-09-21T12:12:44;16.40;70.90
43651;DHT22;29247;50.944;5.382;2022-09-21T12:15:25;16.40;70.90
43651;DHT22;29247;50.944;5.382;2022-09-21T12:26:03;16.50;70.70
43651;DHT22;29247;50.944;5.382;2022-09-21T12:28:38;16.50;70.60
43651;DHT22;29247;50.944;5.382;2022-09-21T12:31:13;16.60;70.40
43651;DHT22;29247;50.944;5.382;2022-09-21T12:33:50;16.60;69.40
43651;DHT22;29247;50.944;5.382;2022-09-21T12:36:32;16.60;69.20
43651;DHT22;29247;50.944;5.382;2022-09-21T12:39:30;16.60;68.90
43651;DHT22;29247;50.944;5.382;2022-09-21T12:42:38;16.60;68.40
43651;DHT22;29247;50.944;5.382;2022-09-21T12:45:43;16.60;67.70
43651;DHT22;29247;50.944;5.382;2022-09-21T12:48:31;16.60;68.00
43651;DHT22;29247;50.944;5.382;2022-09-21T12:53:38;16.60;68.00
43651;DHT22;29247;50.944;5.382;2022-09-21T13:01:19;16.60;67.90
43651;DHT22;29247;50.944;5.382;2022-09-21T13:04:09;16.60;66.90
43651;DHT22;29247;50.944;5.382;2022-09-21T13:09:22;16.60;66.50
43651;DHT22;29247;50.944;5.382;2022-09-21T13:11:52;16.70;67.30
43651;DHT22;29247;50.944;5.382;2022-09-21T13:14:19;16.70;67.20
43651;DHT22;29247;50.944;5.382;2022-09-21T13:16:53;16.70;66.20
43651;DHT22;29247;50.944;5.382;2022-09-21T13:19:23;16.80;66.70
43651;DHT22;29247;50.944;5.382;2022-09-21T13:22:22;16.80;66.20
43651;DHT22;29247;50.944;5.382;2022-09-21T13:25:05;16.80;65.90
43651;DHT22;29247;50.944;5.382;2022-09-21T13:33:31;16.90;65.50
43651;DHT22;29247;50.944;5.382;2022-09-21T13:36:28;17.00;65.30
43651;DHT22;29247;50.944;5.382;2022-09-21T13:38:56;17.00;64.30
43651;DHT22;29247;50.944;5.382;2022-09-21T13:41:27;17.00;63.90
43651;DHT22;29247;50.944;5.382;2022-09-21T13:51:54;17.10;63.90
43651;DHT22;29247;50.944;5.382;2022-09-21T13:54:26;17.20;62.20
43651;DHT22;29247;50.944;5.382;2022-09-21T13:57:46;17.10;61.00
43651;DHT22;29247;50.944;5.382;2022-09-21T14:02:41;17.30;62.20
43651;DHT22;29247;50.944;5.382;2022-09-21T14:05:18;17.30;61.10
43651;DHT22;29247;50.944;5.382;2022-09-21T14:07:57;17.40;61.10
43651;DHT22;29247;50.944;5.382;2022-09-21T14:10:25;17.50;61.50
43651;DHT22;29247;50.944;5.382;2022-09-21T14:12:51;17.50;61.90
43651;DHT22;29247;50.944;5.382;2022-09-21T14:17:44;17.60;60.30
43651;DHT22;29247;50.944;5.382;2022-09-21T14:20:30;17.50;60.70
43651;DHT22;29247;50.944;5.382;2022-09-21T14:25:57;17.70;60.80
43651;DHT22;29247;50.944;5.382;2022-09-21T14:28:38;17.70;60.10
43651;DHT22;29247;50.944;5.382;2022-09-21T14:31:13;17.60;59.10
43651;DHT22;29247;50.944;5.382;2022-09-21T14:33:44;17.60;58.80
43651;DHT22;29247;50.944;5.382;2022-09-21T14:36:16;17.60;58.80
43651;DHT22;29247;50.944;5.382;2022-09-21T14:38:47;17.50;58.40
43651;DHT22;29247;50.944;5.382;2022-09-21T14:41:20;17.50;58.30
43651;DHT22;29247;50.944;5.382;2022-09-21T14:43:53;17.50;58.70
43651;DHT22;29247;50.944;5.382;2022-09-21T14:46:36;17.50;58.90
43651;DHT22;29247;50.944;5.382;2022-09-21T14:52:20;17.40;59.20
43651;DHT22;29247;50.944;5.382;2022-09-21T14:55:15;17.40;59.20
43651;DHT22;29247;50.944;5.382;2022-09-21T15:00:41;17.30;58.50
43651;DHT22;29247;50.944;5.382;2022-09-21T15:06:25;17.30;58.60
43651;DHT22;29247;50.944;5.382;2022-09-21T15:12:21;17.20;59.20
43651;DHT22;29247;50.944;5.382;2022-09-21T15:17:24;17.20;60.10
43651;DHT22;29247;50.944;5.382;2022-09-21T15:19:56;17.20;60.60
43651;DHT22;29247;50.944;5.382;2022-09-21T15:22:26;17.10;61.20
43651;DHT22;29247;50.944;5.382;2022-09-21T15:24:57;17.10;61.80
43651;DHT22;29247;50.944;5.382;2022-09-21T15:27:28;17.10;62.40
43651;DHT22;29247;50.944;5.382;2022-09-21T15:29:59;17.00;62.70
43651;DHT22;29247;50.944;5.382;2022-09-21T15:32:39;16.90;62.90
43651;DHT22;29247;50.944;5.382;2022-09-21T15:37:42;16.80;63.30
43651;DHT22;29247;50.944;5.382;2022-09-21T15:40:45;16.80;63.50
43651;DHT22;29247;50.944;5.382;2022-09-21T15:45:57;16.70;64.10
43651;DHT22;29247;50.944;5.382;2022-09-21T15:48:31;16.60;64.60
43651;DHT22;29247;50.944;5.382;2022-09-21T15:53:32;16.60;64.90
43651;DHT22;29247;50.944;5.382;2022-09-21T15:55:59;16.60;65.10
43651;DHT22;29247;50.944;5.382;2022-09-21T16:00:54;16.50;65.30
43651;DHT22;29247;50.944;5.382;2022-09-21T16:03:23;16.50;65.60
43651;DHT22;29247;50.944;5.382;2022-09-21T16:05:54;16.50;65.90
43651;DHT22;29247;50.944;5.382;2022-09-21T16:08:32;16.50;66.10
43651;DHT22;29247;50.944;5.382;2022-09-21T16:11:19;16.50;66.30
43651;DHT22;29247;50.944;5.382;2022-09-21T16:13:58;16.50;66.80
43651;DHT22;29247;50.944;5.382;2022-09-21T16:19:42;16.50;66.90
43651;DHT22;29247;50.944;5.382;2022-09-21T16:22:23;16.50;66.80
43651;DHT22;29247;50.944;5.382;2022-09-21T16:24:56;16.40;66.80
43651;DHT22;29247;50.944;5.382;2022-09-21T16:27:25;16.40;67.10
43651;DHT22;29247;50.944;5.382;2022-09-21T16:29:52;16.40;66.90
43651;DHT22;29247;50.944;5.382;2022-09-21T16:34:48;16.50;66.40
43651;DHT22;29247;50.944;5.382;2022-09-21T16:39:45;16.50;65.80
43651;DHT22;29247;50.944;5.382;2022-09-21T16:42:11;16.50;65.30
43651;DHT22;29247;50.944;5.382;2022-09-21T16:44:40;16.50;64.70
43651;DHT22;29247;50.944;5.382;2022-09-21T16:47:16;16.50;64.50
43651;DHT22;29247;50.944;5.382;2022-09-21T16:49:47;16.50;64.50
43651;DHT22;29247;50.944;5.382;2022-09-21T16:52:20;16.60;64.60
43651;DHT22;29247;50.944;5.382;2022-09-21T16:54:46;16.60;64.60
43651;DHT22;29247;50.944;5.382;2022-09-21T16:57:15;16.60;64.20
43651;DHT22;29247;50.944;5.382;2022-09-21T16:59:41;16.60;64.10
43651;DHT22;29247;50.944;5.382;2022-09-21T17:02:10;16.60;64.20
43651;DHT22;29247;50.944;5.382;2022-09-21T17:04:40;16.50;64.30
43651;DHT22;29247;50.944;5.382;2022-09-21T17:07:10;16.50;64.60
43651;DHT22;29247;50.944;5.382;2022-09-21T17:09:38;16.50;64.80
43651;DHT22;29247;50.944;5.382;2022-09-21T17:12:07;16.50;65.10
43651;DHT22;29247;50.944;5.382;2022-09-21T17:14:36;16.40;65.30
43651;DHT22;29247;50.944;5.382;2022-09-21T17:17:22;16.40;65.60
43651;DHT22;29247;50.944;5.382;2022-09-21T17:19:50;16.40;66.20
43651;DHT22;29247;50.944;5.382;2022-09-21T17:22:17;16.30;66.40
43651;DHT22;29247;50.944;5.382;2022-09-21T17:24:47;16.30;66.90
43651;DHT22;29247;50.944;5.382;2022-09-21T17:27:15;16.20;67.10
43651;DHT22;29247;50.944;5.382;2022-09-21T17:29:44;16.20;67.40
43651;DHT22;29247;50.944;5.382;2022-09-21T17:32:14;16.10;67.70
43651;DHT22;29247;50.944;5.382;2022-09-21T17:34:40;16.10;68.10
43651;DHT22;29247;50.944;5.382;2022-09-21T17:37:07;16.00;68.40
43651;DHT22;29247;50.944;5.382;2022-09-21T17:39:35;16.00;68.70
43651;DHT22;29247;50.944;5.382;2022-09-21T17:42:21;16.00;69.10
43651;DHT22;29247;50.944;5.382;2022-09-21T17:47:38;15.80;70.00
43651;DHT22;29247;50.944;5.382;2022-09-21T17:52:39;15.70;70.80
43651;DHT22;29247;50.944;5.382;2022-09-21T17:55:23;15.70;71.10
43651;DHT22;29247;50.944;5.382;2022-09-21T17:58:03;15.60;71.40
43651;DHT22;29247;50.944;5.382;2022-09-21T18:00:33;15.60;71.80
43651;DHT22;29247;50.944;5.382;2022-09-21T18:03:04;15.60;71.70
43651;DHT22;29247;50.944;5.382;2022-09-21T18:05:39;15.50;72.20
43651;DHT22;29247;50.944;5.382;2022-09-21T18:08:06;15.40;72.80
43651;DHT22;29247;50.944;5.382;2022-09-21T18:10:35;15.40;73.10
43651;DHT22;29247;50.944;5.382;2022-09-21T18:13:20;15.30;73.30
43651;DHT22;29247;50.944;5.382;2022-09-21T18:16:04;15.30;73.40
43651;DHT22;29247;50.944;5.382;2022-09-21T18:18:43;15.20;73.50
43651;DHT22;29247;50.944;5.382;2022-09-21T18:21:19;15.10;73.40
43651;DHT22;29247;50.944;5.382;2022-09-21T18:26:21;15.00;73.60
43651;DHT22;29247;50.944;5.382;2022-09-21T18:28:49;15.00;73.70
43651;DHT22;29247;50.944;5.382;2022-09-21T18:37:05;14.80;74.10
43651;DHT22;29247;50.944;5.382;2022-09-21T18:43:16;14.70;74.50
43651;DHT22;29247;50.944;5.382;2022-09-21T18:45:47;14.60;74.60
43651;DHT22;29247;50.944;5.382;2022-09-21T18:51:08;14.50;74.80
43651;DHT22;29247;50.944;5.382;2022-09-21T18:53:44;14.40;75.00
43651;DHT22;29247;50.944;5.382;2022-09-21T18:56:13;14.40;75.10
43651;DHT22;29247;50.944;5.382;2022-09-21T18:58:40;14.40;75.30
43651;DHT22;29247;50.944;5.382;2022-09-21T19:01:13;14.30;75.40
43651;DHT22;29247;50.944;5.382;2022-09-21T19:03:41;14.30;75.80
43651;DHT22;29247;50.944;5.382;2022-09-21T19:17:48;14.00;76.20
43651;DHT22;29247;50.944;5.382;2022-09-21T19:26:28;13.90;76.80
43651;DHT22;29247;50.944;5.382;2022-09-21T19:31:52;13.90;77.00
43651;DHT22;29247;50.944;5.382;2022-09-21T19:34:18;13.90;77.00
43651;DHT22;29247;50.944;5.382;2022-09-21T19:36:45;13.80;77.00
43651;DHT22;29247;50.944;5.382;2022-09-21T19:39:16;13.80;77.00
43651;DHT22;29247;50.944;5.382;2022-09-21T19:42:05;13.70;77.10
43651;DHT22;29247;50.944;5.382;2022-09-21T19:49:53;13.60;77.20